Pinconning, Michigan
Current Conditions -  °F | °C
As of 8:14 AM on Sunday 23 Nov 2014 (Local Time) from KIKW Reporting Station
Overcast Overcast  
Wind Chill: 45°   Ceiling: 3900
Heat Index: 49°   Visibility: 10mi
Dew Point: 46°   Wind: 9mph
Humidity: 90%   Direction: 190°S
Pressure: 29.83"   Gusts: NA
Location:  43.85°N, 83.96°W
Report Text: KIKW 231314Z AUTO 19008KT 10SM SCT029 OVC039 10/08 A2983 RMK AO2 T00950080
Loading
Personal Weather Stations






























Interactive Weather Map New forecast layout! Learn more

10-Day Weather Forecast

Advertisements
Track Severe Weather on mobile